Zprávy METAR z letišť v České republice

LKPR - Praha Ruzyně, Česká republika
Vzdálenost od této stanice: ZJZ 98km
Aktualizováno: 15.10.2018 22:00
 
Teplota vzduchu: 12°C
Vítr: JV 19 km/h
Rosný bod: 4°C
Vlhkost vzduchu: 58%
Tlak vzduchu: 1018 hPa
Stav počasí: Jasno
Oblačnost: jasná obloha
Viditelnost: více než 10 km
2018/10/15 20:00 LKPR 152000Z 13010KT CAVOK 12/04 Q1018 NOSIG
LKTB - Brno Tuřany, Česká republika
Vzdálenost od této stanice: JJV 174km
Aktualizováno: 15.10.2018 22:00
 
Teplota vzduchu: 13°C
Vítr: V 15 km/h
Rosný bod: 3°C
Vlhkost vzduchu: 51%
Tlak vzduchu: 1021 hPa
Stav počasí: Jasno
Oblačnost: jasná obloha
Viditelnost: více než 10 km
2018/10/15 20:00 LKTB 152000Z 10008KT CAVOK 13/03 Q1021 NOSIG
 
LKKV - Karlovy Vary, Česká republika
Vzdálenost od této stanice: Z 187km
Aktualizováno: 15.10.2018 22:00
 
Teplota vzduchu: 8°C
Chlad větru: 6°C
Vítr: V 11 km/h
Rosný bod: 3°C
Vlhkost vzduchu: 71%
Tlak vzduchu: 1018 hPa
Stav počasí: Jasno
Oblačnost: jasná obloha
Viditelnost: více než 10 km
2018/10/15 20:00 LKKV 152000Z 10006KT CAVOK 08/03 Q1018
LKMT - Ostrava Mošnov, Česká republika
Vzdálenost od této stanice: VJV 208km
Aktualizováno: 15.10.2018 22:00
 
Teplota vzduchu: 11°C
Vítr: JJZ 9 km/h
Rosný bod: 4°C
Vlhkost vzduchu: 62%
Tlak vzduchu: 1021 hPa
Stav počasí: Jasno
Oblačnost: jasná obloha
Viditelnost: více než 10 km
2018/10/15 20:00 LKMT 152000Z 21005KT CAVOK 11/04 Q1021 NOSIG
 
LKPD - Pardubice, Česká republika
Vzdálenost od této stanice: JJV 56km
Aktualizováno: 15.10.2018 22:00
 
Teplota vzduchu: 13°C
Vítr: V 13 km/h
Rosný bod: 3°C
Vlhkost vzduchu: 51%
Tlak vzduchu: 1019 hPa
Stav počasí: Jasno
Oblačnost: jasná obloha
Viditelnost: více než 10 km
2018/10/15 20:00 LKPD 152000Z 09007KT CAVOK 13/03 Q1019
LKKB - Praha Kbely, Česká republika
Vzdálenost od této stanice: ZJZ 81km
Aktualizováno: 15.10.2018 22:00
 
Teplota vzduchu: 13°C
Vítr: VSV 11 km/h
Rosný bod: 5°C
Vlhkost vzduchu: 59%
Tlak vzduchu: 1018 hPa
Stav počasí: Jasno
Oblačnost: jasná obloha
Viditelnost: více než 10 km
2018/10/15 20:00 LKKB 152000Z 07006KT CAVOK 13/05 Q1018 NOSIG
 
LKCV - Čáslav, Česká republika
Vzdálenost od této stanice: J 63km
Aktualizováno: 15.10.2018 22:00
 
Teplota vzduchu: 17°C
Vítr: VJV 13 km/h
Rosný bod: 6°C
Vlhkost vzduchu: 49%
Tlak vzduchu: 1018 hPa
Stav počasí: Jasno
Oblačnost: jasná obloha
Viditelnost: více než 10 km
2018/10/15 20:00 LKCV 152000Z 12007KT 060V160 CAVOK 17/06 Q1018 NOSIG
LKNA - Náměšť n. Osl., Česká republika
Vzdálenost od této stanice: JJV 154km
Aktualizováno: 15.10.2018 22:00
 
Teplota vzduchu: 12°C
Vítr: VJV 22 km/h
Rosný bod: 4°C
Vlhkost vzduchu: 58%
Tlak vzduchu: 1020 hPa
Stav počasí: Jasno
Oblačnost: jasná obloha
Viditelnost: více než 10 km
2018/10/15 20:00 LKNA 152000Z 12012KT CAVOK 12/04 Q1020 NOSIG
 
LKLN - Plzeň Líně, Česká republika
Vzdálenost od této stanice: ZJZ 184km
Aktualizováno: 15.10.2018 22:00
 
Teplota vzduchu: 13°C
Vítr: bezvětří
Rosný bod: 5°C
Vlhkost vzduchu: 59%
Tlak vzduchu: 1018 hPa
Stav počasí: Jasno
Oblačnost: jasná obloha
Viditelnost: více než 10 km
2018/10/15 20:00 LKLN 152000Z AUTO 00000KT CAVOK 13/05 Q1018
LKVO - Vodochody, Česká republika
Vzdálenost od této stanice: ZJZ 84km
Aktualizováno: 15.10.2018 16:00
Není aktuální
 
Teplota vzduchu: 21°C
Vítr: JV 15 km/h
Rosný bod: 3°C
Vlhkost vzduchu: 31%
Tlak vzduchu: 1017 hPa
Stav počasí: Jasno
Oblačnost: jasná obloha
Viditelnost: více než 10 km
2018/10/15 14:00 LKVO 151400Z 13008KT CAVOK 21/03 Q1017

Metar display script od Saratoga-Weather.org
upravil a přeložil Miloš Jiřík